SFR360 FAOR-FAPE
Flight info
| Callsign | SFR360 |
|---|---|
| Flight time | 1h 20m |
| Altitude | 38000 |
| Route | OVALA UZ18 NEVEN UQ8 ALKAT DCT PEV |
| Aircraft | B738/M-SDE2E3FGHIRWXY/LB1 |
Departure
| Time | 2026-05-06 14:20 |
|---|---|
| Airport | O.R. Tambo International Airport (FAOR) |
Arrival
| Time | 2026-05-06 15:40 |
|---|---|
| Airport | Chief Dawid Stuurman International Airport (FAPE) |
| Time | Latitude | Longitude | Altitude | Speed | Heading |
|---|---|---|---|---|---|
| 2026-05-06 14:01 | -26.13319 | 28.23482 | 5546 ft | 0 kts | 96° |
| 2026-05-06 14:08 | -26.13319 | 28.23478 | 5518 ft | 3 kts | 96° |
| 2026-05-06 14:09 | -26.13316 | 28.23449 | 5547 ft | 4 kts | 96° |
| 2026-05-06 14:09 | -26.13314 | 28.23425 | 5549 ft | 4 kts | 95° |
| 2026-05-06 14:09 | -26.13316 | 28.23399 | 5547 ft | 4 kts | 46° |
| 2026-05-06 14:09 | -26.13335 | 28.23390 | 5546 ft | 4 kts | 6° |
| 2026-05-06 14:10 | -26.13347 | 28.23389 | 5546 ft | 1 kts | 6° |
| 2026-05-06 14:11 | -26.13348 | 28.23389 | 5546 ft | 0 kts | 6° |
| 2026-05-06 14:12 | -26.13346 | 28.23389 | 5546 ft | 1 kts | 6° |
| 2026-05-06 14:12 | -26.13327 | 28.23391 | 5548 ft | 6 kts | 6° |
| 2026-05-06 14:12 | -26.13266 | 28.23398 | 5550 ft | 11 kts | 6° |
| 2026-05-06 14:12 | -26.13188 | 28.23407 | 5546 ft | 11 kts | 5° |
| 2026-05-06 14:13 | -26.13119 | 28.23436 | 5546 ft | 11 kts | 54° |
| 2026-05-06 14:13 | -26.13118 | 28.23514 | 5549 ft | 11 kts | 97° |
| 2026-05-06 14:13 | -26.13128 | 28.23608 | 5545 ft | 13 kts | 96° |
| 2026-05-06 14:13 | -26.13156 | 28.23684 | 5546 ft | 11 kts | 151° |
| 2026-05-06 14:14 | -26.13224 | 28.23672 | 5547 ft | 9 kts | 196° |
| 2026-05-06 14:14 | -26.13283 | 28.23653 | 5548 ft | 6 kts | 195° |
| 2026-05-06 14:14 | -26.13299 | 28.23648 | 5548 ft | 1 kts | 196° |
| 2026-05-06 14:14 | -26.13320 | 28.23642 | 5548 ft | 4 kts | 195° |
| 2026-05-06 14:15 | -26.13354 | 28.23631 | 5551 ft | 7 kts | 195° |
| 2026-05-06 14:15 | -26.13419 | 28.23611 | 5551 ft | 13 kts | 195° |
| 2026-05-06 14:15 | -26.13520 | 28.23580 | 5552 ft | 17 kts | 195° |
| 2026-05-06 14:15 | -26.13633 | 28.23545 | 5552 ft | 17 kts | 195° |
| 2026-05-06 14:16 | -26.13747 | 28.23510 | 5556 ft | 17 kts | 195° |
| 2026-05-06 14:16 | -26.13857 | 28.23476 | 5558 ft | 16 kts | 195° |
| 2026-05-06 14:16 | -26.13976 | 28.23439 | 5560 ft | 19 kts | 196° |
| 2026-05-06 14:16 | -26.14101 | 28.23400 | 5563 ft | 18 kts | 195° |
| 2026-05-06 14:17 | -26.14222 | 28.23362 | 5562 ft | 18 kts | 195° |
| 2026-05-06 14:17 | -26.14333 | 28.23328 | 5564 ft | 15 kts | 195° |
| 2026-05-06 14:17 | -26.14425 | 28.23299 | 5564 ft | 12 kts | 195° |
| 2026-05-06 14:17 | -26.14506 | 28.23277 | 5561 ft | 12 kts | 187° |
| 2026-05-06 14:18 | -26.14582 | 28.23297 | 5564 ft | 11 kts | 146° |
| 2026-05-06 14:18 | -26.14611 | 28.23367 | 5566 ft | 10 kts | 105° |
| 2026-05-06 14:18 | -26.14618 | 28.23436 | 5566 ft | 8 kts | 71° |
| 2026-05-06 14:18 | -26.14575 | 28.23457 | 5566 ft | 9 kts | 14° |
| 2026-05-06 14:19 | -26.14360 | 28.23522 | 5566 ft | 65 kts | 15° |
| 2026-05-06 14:19 | -26.13706 | 28.23725 | 5558 ft | 129 kts | 15° |
| 2026-05-06 14:19 | -26.12662 | 28.24059 | 5549 ft | 181 kts | 12° |
| 2026-05-06 14:19 | -26.11394 | 28.24420 | 6119 ft | 187 kts | 7° |
| 2026-05-06 14:20 | -26.10162 | 28.24788 | 7073 ft | 185 kts | 11° |
| 2026-05-06 14:20 | -26.08898 | 28.25300 | 7510 ft | 205 kts | 15° |
| 2026-05-06 14:20 | -26.07580 | 28.26132 | 7671 ft | 236 kts | 41° |
| 2026-05-06 14:20 | -26.06701 | 28.27786 | 7890 ft | 265 kts | 72° |
| 2026-05-06 14:21 | -26.06643 | 28.29887 | 8280 ft | 283 kts | 102° |
| 2026-05-06 14:21 | -26.07458 | 28.31920 | 8566 ft | 302 kts | 130° |
| 2026-05-06 14:21 | -26.09056 | 28.33403 | 9324 ft | 299 kts | 157° |
| 2026-05-06 14:21 | -26.11029 | 28.33985 | 10123 ft | 294 kts | 182° |
| 2026-05-06 14:22 | -26.13109 | 28.33893 | 10539 ft | 309 kts | 189° |
| 2026-05-06 14:22 | -26.15322 | 28.33630 | 10773 ft | 329 kts | 193° |
| 2026-05-06 14:22 | -26.17615 | 28.33178 | 11324 ft | 337 kts | 196° |
| 2026-05-06 14:22 | -26.19930 | 28.32655 | 12044 ft | 342 kts | 198° |
| 2026-05-06 14:23 | -26.22266 | 28.32118 | 12850 ft | 344 kts | 198° |
| 2026-05-06 14:23 | -26.24619 | 28.31582 | 13634 ft | 347 kts | 198° |
| 2026-05-06 14:23 | -26.26991 | 28.31051 | 14392 ft | 348 kts | 198° |
| 2026-05-06 14:23 | -26.29382 | 28.30525 | 14995 ft | 353 kts | 198° |
| 2026-05-06 14:24 | -26.31821 | 28.29994 | 15539 ft | 360 kts | 198° |
| 2026-05-06 14:24 | -26.34263 | 28.29465 | 16128 ft | 365 kts | 198° |
| 2026-05-06 14:24 | -26.36771 | 28.28927 | 16756 ft | 369 kts | 198° |
| 2026-05-06 14:24 | -26.39312 | 28.28383 | 17342 ft | 374 kts | 198° |
| 2026-05-06 14:25 | -26.41886 | 28.27831 | 17916 ft | 379 kts | 199° |
| 2026-05-06 14:25 | -26.44494 | 28.27274 | 18479 ft | 384 kts | 199° |
| 2026-05-06 14:25 | -26.47137 | 28.26708 | 18940 ft | 390 kts | 199° |
| 2026-05-06 14:25 | -26.49824 | 28.26132 | 19377 ft | 396 kts | 200° |
| 2026-05-06 14:26 | -26.52555 | 28.25548 | 19856 ft | 402 kts | 200° |
| 2026-05-06 14:26 | -26.55309 | 28.24959 | 20426 ft | 404 kts | 200° |
| 2026-05-06 14:26 | -26.58047 | 28.24373 | 20903 ft | 409 kts | 201° |
| 2026-05-06 14:26 | -26.60863 | 28.23769 | 21306 ft | 415 kts | 201° |
| 2026-05-06 14:27 | -26.63719 | 28.23155 | 21698 ft | 421 kts | 201° |
| 2026-05-06 14:27 | -26.66615 | 28.22533 | 22133 ft | 426 kts | 202° |
| 2026-05-06 14:27 | -26.69546 | 28.21905 | 22558 ft | 431 kts | 202° |
| 2026-05-06 14:27 | -26.72504 | 28.21270 | 22975 ft | 436 kts | 202° |
| 2026-05-06 14:28 | -26.75495 | 28.20627 | 23387 ft | 440 kts | 203° |
| 2026-05-06 14:28 | -26.78522 | 28.19977 | 23766 ft | 445 kts | 203° |
| 2026-05-06 14:28 | -26.81571 | 28.19323 | 24235 ft | 445 kts | 201° |
| 2026-05-06 14:28 | -26.84544 | 28.18695 | 24943 ft | 439 kts | 201° |
| 2026-05-06 14:29 | -26.87545 | 28.18055 | 25336 ft | 441 kts | 201° |
| 2026-05-06 14:29 | -26.90580 | 28.17399 | 25606 ft | 446 kts | 201° |
| 2026-05-06 14:29 | -26.93637 | 28.16736 | 25901 ft | 450 kts | 201° |
| 2026-05-06 14:29 | -26.96726 | 28.16067 | 26248 ft | 453 kts | 201° |
| 2026-05-06 14:30 | -26.99819 | 28.15400 | 26636 ft | 454 kts | 201° |
| 2026-05-06 14:30 | -27.02928 | 28.14730 | 26995 ft | 456 kts | 201° |
| 2026-05-06 14:30 | -27.06056 | 28.14055 | 27302 ft | 459 kts | 201° |
| 2026-05-06 14:30 | -27.09203 | 28.13374 | 27677 ft | 462 kts | 201° |
| 2026-05-06 14:31 | -27.12325 | 28.12699 | 27985 ft | 464 kts | 201° |
| 2026-05-06 14:31 | -27.15504 | 28.12011 | 28266 ft | 467 kts | 201° |
| 2026-05-06 14:31 | -27.18708 | 28.11318 | 28554 ft | 470 kts | 201° |
| 2026-05-06 14:31 | -27.21930 | 28.10620 | 28818 ft | 473 kts | 201° |
| 2026-05-06 14:32 | -27.25174 | 28.09917 | 29088 ft | 476 kts | 201° |
| 2026-05-06 14:32 | -27.28435 | 28.09211 | 29360 ft | 479 kts | 201° |
| 2026-05-06 14:32 | -27.31719 | 28.08499 | 29619 ft | 481 kts | 201° |
| 2026-05-06 14:32 | -27.35013 | 28.07785 | 29862 ft | 484 kts | 202° |
| 2026-05-06 14:33 | -27.38333 | 28.07064 | 30137 ft | 487 kts | 202° |
| 2026-05-06 14:33 | -27.41617 | 28.06352 | 30409 ft | 488 kts | 201° |
| 2026-05-06 14:33 | -27.44942 | 28.05633 | 30804 ft | 485 kts | 201° |
| 2026-05-06 14:33 | -27.48255 | 28.04903 | 31050 ft | 485 kts | 202° |
| 2026-05-06 14:34 | -27.51498 | 28.03955 | 31200 ft | 481 kts | 207° |
| 2026-05-06 14:34 | -27.54691 | 28.02839 | 31399 ft | 480 kts | 208° |
| 2026-05-06 14:34 | -27.57866 | 28.01668 | 31677 ft | 479 kts | 208° |
| 2026-05-06 14:34 | -27.61027 | 28.00496 | 31991 ft | 478 kts | 208° |
| 2026-05-06 14:35 | -27.63129 | 27.99725 | 32172 ft | 479 kts | 208° |
| 2026-05-06 14:35 | -27.66300 | 27.98577 | 32507 ft | 479 kts | 207° |
| 2026-05-06 14:35 | -27.69482 | 27.97441 | 32717 ft | 481 kts | 207° |
| 2026-05-06 14:35 | -27.73760 | 27.95929 | 33056 ft | 481 kts | 207° |
| 2026-05-06 14:36 | -27.75867 | 27.95187 | 33232 ft | 481 kts | 207° |
| 2026-05-06 14:36 | -27.79063 | 27.94062 | 33488 ft | 481 kts | 207° |
| 2026-05-06 14:36 | -27.83301 | 27.92567 | 33784 ft | 482 kts | 207° |
| 2026-05-06 14:36 | -27.86500 | 27.91436 | 34019 ft | 482 kts | 207° |
| 2026-05-06 14:37 | -27.89697 | 27.90305 | 34248 ft | 481 kts | 207° |
| 2026-05-06 14:37 | -27.92883 | 27.89178 | 34523 ft | 479 kts | 207° |
| 2026-05-06 14:37 | -27.94989 | 27.88432 | 34747 ft | 478 kts | 207° |
| 2026-05-06 14:37 | -27.99227 | 27.86928 | 34998 ft | 478 kts | 207° |
| 2026-05-06 14:38 | -28.02392 | 27.85787 | 35181 ft | 477 kts | 207° |
| 2026-05-06 14:38 | -28.05544 | 27.84628 | 35429 ft | 476 kts | 207° |
| 2026-05-06 14:38 | -28.07634 | 27.83855 | 35600 ft | 474 kts | 207° |
| 2026-05-06 14:38 | -28.10757 | 27.82697 | 35829 ft | 473 kts | 207° |
| 2026-05-06 14:39 | -28.14900 | 27.81160 | 36084 ft | 472 kts | 207° |
| 2026-05-06 14:39 | -28.17005 | 27.80379 | 36215 ft | 472 kts | 207° |
| 2026-05-06 14:39 | -28.20120 | 27.79226 | 36427 ft | 471 kts | 206° |
| 2026-05-06 14:39 | -28.23235 | 27.78074 | 36638 ft | 470 kts | 206° |
| 2026-05-06 14:40 | -28.26338 | 27.76926 | 36828 ft | 469 kts | 206° |
| 2026-05-06 14:40 | -28.29400 | 27.75793 | 36993 ft | 469 kts | 206° |
| 2026-05-06 14:40 | -28.32493 | 27.74647 | 37198 ft | 468 kts | 206° |
| 2026-05-06 14:40 | -28.35582 | 27.73503 | 37388 ft | 467 kts | 206° |
| 2026-05-06 14:41 | -28.38666 | 27.72359 | 37580 ft | 466 kts | 206° |
| 2026-05-06 14:41 | -28.41757 | 27.71211 | 37754 ft | 465 kts | 206° |
| 2026-05-06 14:41 | -28.44830 | 27.70070 | 37917 ft | 465 kts | 206° |
| 2026-05-06 14:41 | -28.47907 | 27.68925 | 37948 ft | 466 kts | 206° |
| 2026-05-06 14:42 | -28.54093 | 27.66625 | 37974 ft | 469 kts | 205° |
| 2026-05-06 14:42 | -28.60258 | 27.64334 | 37968 ft | 469 kts | 205° |
| 2026-05-06 14:43 | -28.66454 | 27.62029 | 37960 ft | 468 kts | 205° |
| 2026-05-06 14:43 | -28.72632 | 27.59727 | 37957 ft | 467 kts | 205° |
| 2026-05-06 14:44 | -28.78807 | 27.57422 | 37952 ft | 466 kts | 206° |
| 2026-05-06 14:45 | -28.88024 | 27.53975 | 37958 ft | 467 kts | 205° |
| 2026-05-06 14:45 | -28.94188 | 27.51667 | 37955 ft | 466 kts | 206° |
| 2026-05-06 14:46 | -29.00347 | 27.49359 | 37957 ft | 465 kts | 206° |
| 2026-05-06 14:46 | -29.06496 | 27.47050 | 37996 ft | 465 kts | 206° |
| 2026-05-06 14:47 | -29.12652 | 27.44734 | 37952 ft | 466 kts | 206° |
| 2026-05-06 14:47 | -29.18773 | 27.42431 | 37963 ft | 466 kts | 206° |
| 2026-05-06 14:48 | -29.24919 | 27.40115 | 37980 ft | 466 kts | 206° |
| 2026-05-06 14:48 | -29.31071 | 27.37794 | 38001 ft | 465 kts | 206° |
| 2026-05-06 14:49 | -29.37220 | 27.35472 | 38029 ft | 465 kts | 205° |
| 2026-05-06 14:49 | -29.43370 | 27.33144 | 37996 ft | 466 kts | 205° |
| 2026-05-06 14:50 | -29.49490 | 27.30826 | 37985 ft | 466 kts | 205° |
| 2026-05-06 14:50 | -29.55651 | 27.28490 | 37934 ft | 466 kts | 205° |
| 2026-05-06 14:51 | -29.61811 | 27.26151 | 37946 ft | 467 kts | 205° |
| 2026-05-06 14:51 | -29.67988 | 27.23801 | 37937 ft | 468 kts | 205° |
| 2026-05-06 14:52 | -29.74137 | 27.21461 | 37934 ft | 469 kts | 205° |
| 2026-05-06 14:52 | -29.80330 | 27.19100 | 37919 ft | 470 kts | 205° |
| 2026-05-06 14:53 | -29.86538 | 27.16730 | 37939 ft | 470 kts | 205° |
| 2026-05-06 14:53 | -29.92746 | 27.14358 | 37945 ft | 469 kts | 204° |
| 2026-05-06 14:54 | -29.98944 | 27.11988 | 37911 ft | 468 kts | 204° |
| 2026-05-06 14:54 | -30.05105 | 27.09627 | 37885 ft | 466 kts | 204° |
| 2026-05-06 14:55 | -30.11201 | 27.07288 | 37881 ft | 464 kts | 204° |
| 2026-05-06 14:55 | -30.17317 | 27.04938 | 37891 ft | 462 kts | 204° |
| 2026-05-06 14:56 | -30.23408 | 27.02594 | 37890 ft | 461 kts | 204° |
| 2026-05-06 14:56 | -30.29487 | 27.00252 | 37880 ft | 461 kts | 204° |
| 2026-05-06 14:57 | -30.35521 | 26.97924 | 37871 ft | 461 kts | 204° |
| 2026-05-06 14:57 | -30.41612 | 26.95570 | 37876 ft | 462 kts | 204° |
| 2026-05-06 14:58 | -30.47715 | 26.93210 | 37902 ft | 463 kts | 204° |
| 2026-05-06 14:58 | -30.53843 | 26.90836 | 37869 ft | 465 kts | 204° |
| 2026-05-06 14:59 | -30.59956 | 26.88466 | 37856 ft | 467 kts | 204° |
| 2026-05-06 14:59 | -30.66128 | 26.86069 | 37861 ft | 469 kts | 203° |
| 2026-05-06 15:00 | -30.72316 | 26.83663 | 37851 ft | 470 kts | 203° |
| 2026-05-06 15:00 | -30.78516 | 26.81250 | 37855 ft | 470 kts | 203° |
| 2026-05-06 15:01 | -30.84712 | 26.78832 | 37851 ft | 469 kts | 203° |
| 2026-05-06 15:01 | -30.90847 | 26.76433 | 37850 ft | 467 kts | 203° |
| 2026-05-06 15:02 | -30.97002 | 26.74022 | 37858 ft | 466 kts | 203° |
| 2026-05-06 15:02 | -31.03138 | 26.71615 | 37850 ft | 465 kts | 203° |
| 2026-05-06 15:03 | -31.09268 | 26.69208 | 37851 ft | 464 kts | 203° |
| 2026-05-06 15:03 | -31.15379 | 26.66805 | 37847 ft | 463 kts | 203° |
| 2026-05-06 15:04 | -31.21429 | 26.64423 | 37843 ft | 461 kts | 203° |
| 2026-05-06 15:04 | -31.27503 | 26.62027 | 37850 ft | 460 kts | 203° |
| 2026-05-06 15:05 | -31.33567 | 26.59632 | 37853 ft | 460 kts | 202° |
| 2026-05-06 15:05 | -31.39630 | 26.57235 | 37839 ft | 460 kts | 202° |
| 2026-05-06 15:06 | -31.45693 | 26.54834 | 37838 ft | 460 kts | 202° |
| 2026-05-06 15:06 | -31.51711 | 26.52449 | 37800 ft | 459 kts | 204° |
| 2026-05-06 15:07 | -31.57754 | 26.50050 | 37836 ft | 458 kts | 201° |
| 2026-05-06 15:07 | -31.63782 | 26.47655 | 37790 ft | 457 kts | 202° |
| 2026-05-06 15:08 | -31.69796 | 26.45266 | 37791 ft | 456 kts | 201° |
| 2026-05-06 15:08 | -31.75799 | 26.42875 | 37780 ft | 455 kts | 202° |
| 2026-05-06 15:09 | -31.81747 | 26.40500 | 37774 ft | 454 kts | 201° |
| 2026-05-06 15:09 | -31.87728 | 26.38112 | 37783 ft | 453 kts | 200° |
| 2026-05-06 15:10 | -31.93702 | 26.35723 | 37768 ft | 453 kts | 201° |
| 2026-05-06 15:10 | -31.99664 | 26.33336 | 37761 ft | 452 kts | 200° |
| 2026-05-06 15:11 | -32.05593 | 26.30967 | 37768 ft | 452 kts | 201° |
| 2026-05-06 15:11 | -32.11569 | 26.28574 | 37376 ft | 459 kts | 201° |
| 2026-05-06 15:11 | -32.14594 | 26.27359 | 36881 ft | 458 kts | 199° |
| 2026-05-06 15:12 | -32.17602 | 26.26153 | 36290 ft | 457 kts | 200° |
| 2026-05-06 15:12 | -32.20611 | 26.24947 | 35731 ft | 455 kts | 200° |
| 2026-05-06 15:12 | -32.23616 | 26.23740 | 35084 ft | 457 kts | 200° |
| 2026-05-06 15:12 | -32.26588 | 26.22545 | 34445 ft | 458 kts | 199° |
| 2026-05-06 15:13 | -32.29606 | 26.21330 | 33753 ft | 459 kts | 199° |
| 2026-05-06 15:13 | -32.32640 | 26.20108 | 32949 ft | 461 kts | 199° |
| 2026-05-06 15:13 | -32.35668 | 26.18889 | 32257 ft | 460 kts | 199° |
| 2026-05-06 15:13 | -32.38690 | 26.17670 | 31621 ft | 457 kts | 198° |
| 2026-05-06 15:14 | -32.41684 | 26.16462 | 31109 ft | 451 kts | 198° |
| 2026-05-06 15:14 | -32.44633 | 26.15268 | 30614 ft | 446 kts | 198° |
| 2026-05-06 15:14 | -32.47561 | 26.14081 | 30120 ft | 441 kts | 198° |
| 2026-05-06 15:14 | -32.50444 | 26.12911 | 29590 ft | 437 kts | 198° |
| 2026-05-06 15:15 | -32.53308 | 26.11748 | 29013 ft | 432 kts | 198° |
| 2026-05-06 15:15 | -32.56092 | 26.10617 | 28511 ft | 426 kts | 198° |
| 2026-05-06 15:15 | -32.58872 | 26.09486 | 28029 ft | 420 kts | 198° |
| 2026-05-06 15:15 | -32.61620 | 26.08369 | 27529 ft | 414 kts | 198° |
| 2026-05-06 15:16 | -32.64326 | 26.07267 | 27042 ft | 409 kts | 198° |
| 2026-05-06 15:16 | -32.67002 | 26.06178 | 26563 ft | 405 kts | 197° |
| 2026-05-06 15:16 | -32.69653 | 26.05098 | 26091 ft | 400 kts | 197° |
| 2026-05-06 15:16 | -32.72267 | 26.04030 | 25640 ft | 396 kts | 197° |
| 2026-05-06 15:17 | -32.74862 | 26.02971 | 25194 ft | 392 kts | 197° |
| 2026-05-06 15:17 | -32.77432 | 26.01922 | 24751 ft | 388 kts | 197° |
| 2026-05-06 15:17 | -32.79977 | 26.00882 | 24312 ft | 385 kts | 197° |
| 2026-05-06 15:17 | -32.82467 | 25.99865 | 23872 ft | 382 kts | 197° |
| 2026-05-06 15:18 | -32.84974 | 25.98840 | 23477 ft | 379 kts | 197° |
| 2026-05-06 15:18 | -32.87448 | 25.97831 | 23052 ft | 375 kts | 197° |
| 2026-05-06 15:18 | -32.89907 | 25.96828 | 22567 ft | 372 kts | 197° |
| 2026-05-06 15:18 | -32.92344 | 25.95834 | 22103 ft | 368 kts | 197° |
| 2026-05-06 15:19 | -32.94756 | 25.94849 | 21624 ft | 364 kts | 196° |
| 2026-05-06 15:19 | -32.97136 | 25.93874 | 21262 ft | 359 kts | 196° |
| 2026-05-06 15:19 | -32.99480 | 25.92916 | 20833 ft | 355 kts | 196° |
| 2026-05-06 15:19 | -33.01812 | 25.91962 | 20418 ft | 352 kts | 196° |
| 2026-05-06 15:20 | -33.04115 | 25.91020 | 19993 ft | 349 kts | 197° |
| 2026-05-06 15:20 | -33.06365 | 25.90099 | 19607 ft | 345 kts | 197° |
| 2026-05-06 15:20 | -33.08628 | 25.89171 | 19204 ft | 342 kts | 197° |
| 2026-05-06 15:20 | -33.10871 | 25.88251 | 18805 ft | 340 kts | 197° |
| 2026-05-06 15:21 | -33.13102 | 25.87336 | 18406 ft | 337 kts | 197° |
| 2026-05-06 15:21 | -33.15315 | 25.86428 | 18016 ft | 335 kts | 197° |
| 2026-05-06 15:21 | -33.17509 | 25.85526 | 17582 ft | 332 kts | 198° |
| 2026-05-06 15:21 | -33.19641 | 25.84484 | 17174 ft | 331 kts | 203° |
| 2026-05-06 15:22 | -33.21694 | 25.83266 | 16759 ft | 328 kts | 205° |
| 2026-05-06 15:22 | -33.23712 | 25.82019 | 16388 ft | 325 kts | 205° |
| 2026-05-06 15:22 | -33.25683 | 25.80793 | 15993 ft | 322 kts | 205° |
| 2026-05-06 15:22 | -33.27661 | 25.79566 | 15643 ft | 319 kts | 205° |
| 2026-05-06 15:23 | -33.29632 | 25.78350 | 15259 ft | 317 kts | 205° |
| 2026-05-06 15:23 | -33.31587 | 25.77149 | 14880 ft | 315 kts | 205° |
| 2026-05-06 15:23 | -33.33531 | 25.75958 | 14525 ft | 313 kts | 205° |
| 2026-05-06 15:23 | -33.35466 | 25.74775 | 14142 ft | 312 kts | 205° |
| 2026-05-06 15:24 | -33.37388 | 25.73601 | 13793 ft | 309 kts | 205° |
| 2026-05-06 15:24 | -33.39302 | 25.72432 | 13434 ft | 308 kts | 206° |
| 2026-05-06 15:24 | -33.41200 | 25.71274 | 13037 ft | 306 kts | 206° |
| 2026-05-06 15:24 | -33.43089 | 25.70120 | 12687 ft | 303 kts | 206° |
| 2026-05-06 15:25 | -33.44932 | 25.68994 | 12338 ft | 300 kts | 206° |
| 2026-05-06 15:25 | -33.46785 | 25.67861 | 11976 ft | 298 kts | 205° |
| 2026-05-06 15:25 | -33.48627 | 25.66735 | 11616 ft | 297 kts | 205° |
| 2026-05-06 15:25 | -33.50461 | 25.65613 | 11262 ft | 295 kts | 205° |
| 2026-05-06 15:26 | -33.52285 | 25.64498 | 10910 ft | 294 kts | 205° |
| 2026-05-06 15:26 | -33.54096 | 25.63390 | 10576 ft | 291 kts | 204° |
| 2026-05-06 15:26 | -33.55891 | 25.62290 | 10293 ft | 291 kts | 204° |
| 2026-05-06 15:26 | -33.57687 | 25.61189 | 10152 ft | 286 kts | 204° |
| 2026-05-06 15:27 | -33.59447 | 25.60109 | 10025 ft | 282 kts | 204° |
| 2026-05-06 15:27 | -33.61140 | 25.59069 | 9894 ft | 273 kts | 204° |
| 2026-05-06 15:27 | -33.62800 | 25.58049 | 9778 ft | 263 kts | 203° |
| 2026-05-06 15:27 | -33.64398 | 25.57067 | 9681 ft | 254 kts | 203° |
| 2026-05-06 15:28 | -33.65945 | 25.56116 | 9569 ft | 246 kts | 203° |
| 2026-05-06 15:28 | -33.67465 | 25.55183 | 9325 ft | 244 kts | 203° |
| 2026-05-06 15:28 | -33.68964 | 25.54262 | 9075 ft | 242 kts | 203° |
| 2026-05-06 15:28 | -33.70485 | 25.53331 | 8833 ft | 252 kts | 203° |
| 2026-05-06 15:29 | -33.72085 | 25.52351 | 8558 ft | 263 kts | 203° |
| 2026-05-06 15:29 | -33.73713 | 25.51351 | 8303 ft | 268 kts | 203° |
| 2026-05-06 15:29 | -33.75378 | 25.50327 | 8037 ft | 270 kts | 203° |
| 2026-05-06 15:29 | -33.77050 | 25.49296 | 7749 ft | 268 kts | 203° |
| 2026-05-06 15:30 | -33.78694 | 25.48280 | 7490 ft | 264 kts | 203° |
| 2026-05-06 15:30 | -33.80315 | 25.47280 | 7215 ft | 260 kts | 203° |
| 2026-05-06 15:30 | -33.81915 | 25.46291 | 6954 ft | 258 kts | 202° |
| 2026-05-06 15:30 | -33.83512 | 25.45307 | 6691 ft | 258 kts | 203° |
| 2026-05-06 15:31 | -33.85102 | 25.44325 | 6412 ft | 255 kts | 202° |
| 2026-05-06 15:31 | -33.86665 | 25.43359 | 6171 ft | 252 kts | 202° |
| 2026-05-06 15:31 | -33.88211 | 25.42404 | 5929 ft | 248 kts | 202° |
| 2026-05-06 15:32 | -33.91226 | 25.40541 | 5431 ft | 242 kts | 202° |
| 2026-05-06 15:32 | -33.92712 | 25.39621 | 5183 ft | 239 kts | 202° |
| 2026-05-06 15:32 | -33.94181 | 25.38712 | 4938 ft | 237 kts | 202° |
| 2026-05-06 15:32 | -33.95629 | 25.37816 | 4668 ft | 230 kts | 201° |
| 2026-05-06 15:33 | -33.97027 | 25.36948 | 4429 ft | 222 kts | 201° |
| 2026-05-06 15:33 | -33.98374 | 25.36110 | 4147 ft | 213 kts | 200° |
| 2026-05-06 15:33 | -33.99698 | 25.35424 | 3921 ft | 199 kts | 185° |
| 2026-05-06 15:33 | -34.01014 | 25.35500 | 3663 ft | 184 kts | 164° |
| 2026-05-06 15:34 | -34.02160 | 25.36045 | 3420 ft | 173 kts | 146° |
| 2026-05-06 15:34 | -34.03102 | 25.36866 | 3278 ft | 161 kts | 146° |
| 2026-05-06 15:34 | -34.03969 | 25.37609 | 3158 ft | 149 kts | 146° |
| 2026-05-06 15:34 | -34.04792 | 25.38319 | 3054 ft | 145 kts | 146° |
| 2026-05-06 15:35 | -34.05610 | 25.39026 | 2989 ft | 144 kts | 145° |
| 2026-05-06 15:35 | -34.06422 | 25.39731 | 2881 ft | 143 kts | 145° |
| 2026-05-06 15:35 | -34.07216 | 25.40440 | 2776 ft | 142 kts | 139° |
| 2026-05-06 15:35 | -34.07701 | 25.41496 | 2726 ft | 146 kts | 119° |
| 2026-05-06 15:36 | -34.07795 | 25.42755 | 2698 ft | 166 kts | 89° |
| 2026-05-06 15:36 | -34.07344 | 25.44098 | 2705 ft | 177 kts | 81° |
| 2026-05-06 15:36 | -34.06822 | 25.45441 | 2717 ft | 176 kts | 80° |
| 2026-05-06 15:36 | -34.06240 | 25.46758 | 2664 ft | 182 kts | 76° |
| 2026-05-06 15:37 | -34.05580 | 25.48074 | 2427 ft | 188 kts | 73° |
| 2026-05-06 15:37 | -34.04894 | 25.49385 | 2180 ft | 180 kts | 74° |
| 2026-05-06 15:37 | -34.04246 | 25.50623 | 1982 ft | 166 kts | 76° |
| 2026-05-06 15:37 | -34.03655 | 25.51762 | 1738 ft | 155 kts | 77° |
| 2026-05-06 15:38 | -34.03089 | 25.52861 | 1537 ft | 155 kts | 76° |
| 2026-05-06 15:38 | -34.02521 | 25.53956 | 1340 ft | 155 kts | 77° |
| 2026-05-06 15:38 | -34.01952 | 25.55055 | 1111 ft | 153 kts | 76° |
| 2026-05-06 15:38 | -34.01360 | 25.56157 | 904 ft | 158 kts | 74° |
| 2026-05-06 15:39 | -34.00794 | 25.57289 | 722 ft | 157 kts | 58° |
| 2026-05-06 15:39 | -34.00214 | 25.58410 | 559 ft | 157 kts | 58° |
| 2026-05-06 15:39 | -33.99635 | 25.59518 | 339 ft | 155 kts | 54° |
| 2026-05-06 15:39 | -33.99092 | 25.60568 | 211 ft | 142 kts | 56° |
| 2026-05-06 15:40 | -33.98680 | 25.61366 | 213 ft | 81 kts | 58° |
| 2026-05-06 15:40 | -33.98488 | 25.61707 | 210 ft | 14 kts | 6° |
| 2026-05-06 15:40 | -33.98418 | 25.61657 | 211 ft | 10 kts | 325° |
| 2026-05-06 15:40 | -33.98358 | 25.61606 | 217 ft | 9 kts | 318° |
| 2026-05-06 15:41 | -33.98357 | 25.61584 | 209 ft | 3 kts | 237° |
| 2026-05-06 15:41 | -33.98377 | 25.61542 | 210 ft | 9 kts | 239° |
| 2026-05-06 15:41 | -33.98415 | 25.61469 | 213 ft | 11 kts | 243° |
| 2026-05-06 15:41 | -33.98447 | 25.61371 | 216 ft | 14 kts | 245° |
| 2026-05-06 15:42 | -33.98495 | 25.61275 | 211 ft | 14 kts | 238° |
| 2026-05-06 15:42 | -33.98542 | 25.61184 | 214 ft | 11 kts | 238° |
| 2026-05-06 15:42 | -33.98560 | 25.61124 | 216 ft | 5 kts | 296° |
| 2026-05-06 15:42 | -33.98534 | 25.61102 | 212 ft | 3 kts | 328° |
| 2026-05-06 15:43 | -33.98524 | 25.61095 | 211 ft | 0 kts | 328° |